HI1060 MDJB-MBPV
Flight info
| Callsign | HI1060 |
|---|---|
| Flight time | 0h 52m |
| Altitude | 18000 |
| Route | DHG W36 KODIX W24 SGO W39 MALVN DCT RAPPR DCT PVN |
| Aircraft | C25B/M-SDE2E3FGHRWXY/LB1 |
Departure
| Time | 2026-04-24 03:22 |
|---|---|
| Airport | La Isabela International Airport (MDJB) |
Arrival
| Time | 2026-04-24 04:15 |
|---|---|
| Airport | Providenciales International Airport (MBPV) |
| Time | Latitude | Longitude | Altitude | Speed | Heading |
|---|---|---|---|---|---|
| 2026-04-24 03:19 | 18.57366 | -69.98459 | 97 ft | 7 kts | 217° |
| 2026-04-24 03:20 | 18.57252 | -69.98543 | 95 ft | 24 kts | 211° |
| 2026-04-24 03:20 | 18.57084 | -69.98569 | 93 ft | 27 kts | 182° |
| 2026-04-24 03:20 | 18.56962 | -69.98589 | 93 ft | 26 kts | 188° |
| 2026-04-24 03:20 | 18.56787 | -69.98613 | 93 ft | 25 kts | 192° |
| 2026-04-24 03:21 | 18.56602 | -69.98642 | 94 ft | 13 kts | 188° |
| 2026-04-24 03:21 | 18.56545 | -69.98628 | 93 ft | 14 kts | 137° |
| 2026-04-24 03:21 | 18.56529 | -69.98647 | 96 ft | 15 kts | 23° |
| 2026-04-24 03:21 | 18.57070 | -69.98584 | 93 ft | 141 kts | 6° |
| 2026-04-24 03:22 | 18.58346 | -69.98449 | 617 ft | 195 kts | 2° |
| 2026-04-24 03:22 | 18.59779 | -69.98622 | 2280 ft | 228 kts | 348° |
| 2026-04-24 03:22 | 18.61514 | -69.99135 | 3318 ft | 290 kts | 338° |
| 2026-04-24 03:22 | 18.63515 | -70.00088 | 4195 ft | 340 kts | 338° |
| 2026-04-24 03:23 | 18.65820 | -70.00925 | 5335 ft | 355 kts | 345° |
| 2026-04-24 03:23 | 18.68086 | -70.01457 | 6599 ft | 318 kts | 348° |
| 2026-04-24 03:23 | 18.70229 | -70.01987 | 7941 ft | 322 kts | 345° |
| 2026-04-24 03:23 | 18.72406 | -70.02624 | 9363 ft | 327 kts | 343° |
| 2026-04-24 03:24 | 18.74637 | -70.03269 | 10762 ft | 329 kts | 344° |
| 2026-04-24 03:24 | 18.76826 | -70.03884 | 12112 ft | 330 kts | 344° |
| 2026-04-24 03:24 | 18.79056 | -70.04499 | 13545 ft | 330 kts | 344° |
| 2026-04-24 03:24 | 18.81275 | -70.05125 | 14872 ft | 329 kts | 343° |
| 2026-04-24 03:25 | 18.83473 | -70.05747 | 16224 ft | 327 kts | 343° |
| 2026-04-24 03:25 | 18.85670 | -70.06360 | 17640 ft | 325 kts | 342° |
| 2026-04-24 03:25 | 18.87845 | -70.06974 | 18992 ft | 321 kts | 342° |
| 2026-04-24 03:25 | 18.89996 | -70.07579 | 20304 ft | 317 kts | 341° |
| 2026-04-24 03:26 | 18.92118 | -70.08176 | 21670 ft | 313 kts | 341° |
| 2026-04-24 03:26 | 18.94190 | -70.08759 | 22885 ft | 313 kts | 340° |
| 2026-04-24 03:26 | 18.96268 | -70.09344 | 24056 ft | 312 kts | 339° |
| 2026-04-24 03:26 | 18.98351 | -70.09932 | 25149 ft | 309 kts | 339° |
| 2026-04-24 03:27 | 19.00419 | -70.10512 | 26282 ft | 304 kts | 338° |
| 2026-04-24 03:27 | 19.02497 | -70.11103 | 27042 ft | 316 kts | 338° |
| 2026-04-24 03:27 | 19.04661 | -70.11718 | 27727 ft | 327 kts | 338° |
| 2026-04-24 03:27 | 19.06898 | -70.12346 | 28443 ft | 337 kts | 338° |
| 2026-04-24 03:28 | 19.09182 | -70.13005 | 29170 ft | 342 kts | 335° |
| 2026-04-24 03:28 | 19.11353 | -70.14026 | 29762 ft | 345 kts | 324° |
| 2026-04-24 03:28 | 19.13349 | -70.15451 | 30275 ft | 348 kts | 314° |
| 2026-04-24 03:28 | 19.15092 | -70.17242 | 30745 ft | 351 kts | 304° |
| 2026-04-24 03:29 | 19.16513 | -70.19347 | 31229 ft | 352 kts | 295° |
| 2026-04-24 03:29 | 19.17732 | -70.21574 | 31714 ft | 358 kts | 295° |
| 2026-04-24 03:29 | 19.19022 | -70.23868 | 32019 ft | 368 kts | 295° |
| 2026-04-24 03:29 | 19.20352 | -70.26251 | 32032 ft | 384 kts | 295° |
| 2026-04-24 03:30 | 19.21733 | -70.28733 | 32035 ft | 398 kts | 295° |
| 2026-04-24 03:30 | 19.23143 | -70.31276 | 32032 ft | 410 kts | 296° |
| 2026-04-24 03:30 | 19.24592 | -70.33867 | 32029 ft | 400 kts | 296° |
| 2026-04-24 03:30 | 19.25973 | -70.36331 | 32033 ft | 377 kts | 295° |
| 2026-04-24 03:31 | 19.27267 | -70.38664 | 32029 ft | 359 kts | 295° |
| 2026-04-24 03:31 | 19.28600 | -70.40843 | 32017 ft | 345 kts | 298° |
| 2026-04-24 03:31 | 19.29901 | -70.42919 | 32015 ft | 332 kts | 297° |
| 2026-04-24 03:31 | 19.31135 | -70.44928 | 32014 ft | 321 kts | 297° |
| 2026-04-24 03:32 | 19.32341 | -70.46877 | 32011 ft | 311 kts | 297° |
| 2026-04-24 03:32 | 19.34644 | -70.50570 | 32014 ft | 296 kts | 296° |
| 2026-04-24 03:33 | 19.36986 | -70.54372 | 32019 ft | 330 kts | 297° |
| 2026-04-24 03:33 | 19.38294 | -70.56476 | 32034 ft | 352 kts | 297° |
| 2026-04-24 03:33 | 19.39711 | -70.58672 | 32033 ft | 373 kts | 301° |
| 2026-04-24 03:33 | 19.41508 | -70.60775 | 32032 ft | 395 kts | 309° |
| 2026-04-24 03:34 | 19.43678 | -70.62680 | 32035 ft | 415 kts | 317° |
| 2026-04-24 03:34 | 19.46051 | -70.64495 | 32033 ft | 426 kts | 317° |
| 2026-04-24 03:34 | 19.48464 | -70.66384 | 32033 ft | 436 kts | 317° |
| 2026-04-24 03:35 | 19.53326 | -70.70156 | 32035 ft | 450 kts | 317° |
| 2026-04-24 03:35 | 19.58437 | -70.74125 | 32033 ft | 459 kts | 317° |
| 2026-04-24 03:36 | 19.63612 | -70.78153 | 32022 ft | 464 kts | 317° |
| 2026-04-24 03:36 | 19.68840 | -70.82220 | 32021 ft | 467 kts | 317° |
| 2026-04-24 03:37 | 19.74058 | -70.86286 | 32025 ft | 469 kts | 317° |
| 2026-04-24 03:37 | 19.79327 | -70.90394 | 32027 ft | 471 kts | 317° |
| 2026-04-24 03:38 | 19.84619 | -70.94524 | 32036 ft | 472 kts | 317° |
| 2026-04-24 03:38 | 19.89917 | -70.98660 | 32036 ft | 472 kts | 317° |
| 2026-04-24 03:39 | 19.95195 | -71.02788 | 32041 ft | 472 kts | 317° |
| 2026-04-24 03:39 | 20.00506 | -71.06942 | 32041 ft | 473 kts | 317° |
| 2026-04-24 03:40 | 20.05800 | -71.11088 | 32040 ft | 473 kts | 317° |
| 2026-04-24 03:40 | 20.11092 | -71.15235 | 32040 ft | 473 kts | 317° |
| 2026-04-24 03:41 | 20.16393 | -71.19392 | 32039 ft | 472 kts | 317° |
| 2026-04-24 03:41 | 20.21687 | -71.23549 | 32041 ft | 472 kts | 317° |
| 2026-04-24 03:42 | 20.26937 | -71.27674 | 32043 ft | 472 kts | 317° |
| 2026-04-24 03:42 | 20.32214 | -71.31824 | 32043 ft | 471 kts | 317° |
| 2026-04-24 03:43 | 20.37485 | -71.35972 | 32043 ft | 471 kts | 316° |
| 2026-04-24 03:43 | 20.42582 | -71.40293 | 32040 ft | 463 kts | 309° |
| 2026-04-24 03:44 | 20.47078 | -71.45186 | 32044 ft | 461 kts | 308° |
| 2026-04-24 03:44 | 20.51548 | -71.50089 | 32044 ft | 461 kts | 308° |
| 2026-04-24 03:45 | 20.56025 | -71.54996 | 32046 ft | 461 kts | 307° |
| 2026-04-24 03:45 | 20.60497 | -71.59907 | 32044 ft | 461 kts | 307° |
| 2026-04-24 03:46 | 20.64968 | -71.64819 | 32042 ft | 461 kts | 307° |
| 2026-04-24 03:46 | 20.69409 | -71.69704 | 32048 ft | 461 kts | 307° |
| 2026-04-24 03:47 | 20.73884 | -71.74628 | 32042 ft | 461 kts | 307° |
| 2026-04-24 03:47 | 20.78349 | -71.79548 | 32043 ft | 461 kts | 307° |
| 2026-04-24 03:48 | 20.82817 | -71.84475 | 32041 ft | 461 kts | 307° |
| 2026-04-24 03:48 | 20.87283 | -71.89405 | 32046 ft | 461 kts | 307° |
| 2026-04-24 03:49 | 20.91722 | -71.94309 | 32049 ft | 461 kts | 307° |
| 2026-04-24 03:49 | 20.96186 | -71.99245 | 32053 ft | 461 kts | 307° |
| 2026-04-24 03:50 | 21.00651 | -72.04185 | 32052 ft | 461 kts | 307° |
| 2026-04-24 03:50 | 21.05111 | -72.09127 | 32050 ft | 461 kts | 307° |
| 2026-04-24 03:51 | 21.09576 | -72.14076 | 32055 ft | 461 kts | 307° |
| 2026-04-24 03:51 | 21.14036 | -72.19026 | 32052 ft | 462 kts | 307° |
| 2026-04-24 03:52 | 21.18495 | -72.23979 | 32055 ft | 462 kts | 307° |
| 2026-04-24 03:52 | 21.22950 | -72.28931 | 32057 ft | 462 kts | 307° |
| 2026-04-24 03:53 | 21.27383 | -72.33866 | 32058 ft | 462 kts | 307° |
| 2026-04-24 03:53 | 21.32052 | -72.38631 | 32051 ft | 469 kts | 314° |
| 2026-04-24 03:54 | 21.37551 | -72.42303 | 32047 ft | 483 kts | 326° |
| 2026-04-24 03:54 | 21.44016 | -72.44658 | 32040 ft | 499 kts | 340° |
| 2026-04-24 03:55 | 21.51010 | -72.45350 | 32044 ft | 515 kts | 354° |
| 2026-04-24 03:55 | 21.58196 | -72.44148 | 32045 ft | 532 kts | 9° |
| 2026-04-24 03:56 | 21.65071 | -72.40973 | 32045 ft | 547 kts | 25° |
| 2026-04-24 03:56 | 21.71066 | -72.35907 | 32043 ft | 559 kts | 41° |
| 2026-04-24 03:57 | 21.75758 | -72.29190 | 32049 ft | 565 kts | 56° |
| 2026-04-24 03:57 | 21.79465 | -72.21980 | 32043 ft | 519 kts | 67° |
| 2026-04-24 03:57 | 21.80455 | -72.18382 | 32040 ft | 487 kts | 79° |
| 2026-04-24 03:58 | 21.80815 | -72.14874 | 32038 ft | 458 kts | 91° |
| 2026-04-24 03:58 | 21.80572 | -72.11566 | 32038 ft | 430 kts | 104° |
| 2026-04-24 03:58 | 21.79781 | -72.08570 | 32037 ft | 402 kts | 118° |
| 2026-04-24 03:58 | 21.79123 | -72.07013 | 32039 ft | 388 kts | 124° |
| 2026-04-24 04:04 | 21.77509 | -72.03320 | 32040 ft | 372 kts | 114° |
| 2026-04-24 04:04 | 21.76955 | -72.00578 | 31500 ft | 384 kts | 100° |
| 2026-04-24 04:05 | 21.76966 | -71.97652 | 30830 ft | 397 kts | 85° |
| 2026-04-24 04:05 | 21.77574 | -71.94731 | 30187 ft | 403 kts | 70° |
| 2026-04-24 04:05 | 21.78753 | -71.92001 | 29447 ft | 403 kts | 56° |
| 2026-04-24 04:05 | 21.80433 | -71.89612 | 28729 ft | 398 kts | 41° |
| 2026-04-24 04:06 | 21.82521 | -71.87692 | 28017 ft | 390 kts | 28° |
| 2026-04-24 04:06 | 21.84885 | -71.86340 | 27325 ft | 380 kts | 14° |
| 2026-04-24 04:06 | 21.86534 | -71.85786 | 26876 ft | 371 kts | 5° |
| 2026-04-24 04:06 | 21.89058 | -71.85456 | 25951 ft | 362 kts | 353° |
| 2026-04-24 04:07 | 21.92157 | -71.85909 | 24242 ft | 316 kts | 333° |
| 2026-04-24 04:07 | 21.93908 | -71.87107 | 22892 ft | 286 kts | 308° |
| 2026-04-24 04:07 | 21.94636 | -71.88235 | 21950 ft | 271 kts | 291° |
| 2026-04-24 04:07 | 21.95108 | -71.90144 | 20584 ft | 259 kts | 277° |
| 2026-04-24 04:08 | 21.95316 | -71.92053 | 19293 ft | 256 kts | 274° |
| 2026-04-24 04:08 | 21.95441 | -71.93841 | 18084 ft | 253 kts | 273° |
| 2026-04-24 04:08 | 21.95550 | -71.95659 | 16733 ft | 252 kts | 273° |
| 2026-04-24 04:08 | 21.95646 | -71.97536 | 15401 ft | 251 kts | 273° |
| 2026-04-24 04:09 | 21.95537 | -71.99381 | 14111 ft | 251 kts | 255° |
| 2026-04-24 04:09 | 21.94832 | -72.01245 | 12773 ft | 286 kts | 247° |
| 2026-04-24 04:09 | 21.93962 | -72.03272 | 11449 ft | 309 kts | 246° |
| 2026-04-24 04:09 | 21.93021 | -72.05410 | 10192 ft | 322 kts | 245° |
| 2026-04-24 04:10 | 21.92067 | -72.07590 | 8845 ft | 321 kts | 245° |
| 2026-04-24 04:10 | 21.91127 | -72.09767 | 7514 ft | 319 kts | 245° |
| 2026-04-24 04:10 | 21.90211 | -72.11940 | 6448 ft | 317 kts | 245° |
| 2026-04-24 04:11 | 21.88403 | -72.16362 | 5737 ft | 322 kts | 246° |
| 2026-04-24 04:11 | 21.87510 | -72.18554 | 5408 ft | 316 kts | 246° |
| 2026-04-24 04:11 | 21.86626 | -72.20708 | 4853 ft | 314 kts | 246° |
| 2026-04-24 04:11 | 21.85743 | -72.22853 | 4276 ft | 314 kts | 245° |
| 2026-04-24 04:12 | 21.84863 | -72.24989 | 3641 ft | 306 kts | 246° |
| 2026-04-24 04:12 | 21.84089 | -72.26893 | 2794 ft | 259 kts | 246° |
| 2026-04-24 04:12 | 21.83251 | -72.28495 | 1916 ft | 230 kts | 229° |
| 2026-04-24 04:12 | 21.82087 | -72.29469 | 1673 ft | 192 kts | 205° |
| 2026-04-24 04:13 | 21.81008 | -72.30084 | 1319 ft | 163 kts | 205° |
| 2026-04-24 04:13 | 21.79991 | -72.30591 | 960 ft | 171 kts | 191° |
| 2026-04-24 04:13 | 21.78812 | -72.30617 | 678 ft | 151 kts | 161° |
| 2026-04-24 04:13 | 21.78036 | -72.30141 | 451 ft | 126 kts | 123° |
| 2026-04-24 04:14 | 21.77612 | -72.29395 | 320 ft | 109 kts | 97° |
| 2026-04-24 04:14 | 21.77466 | -72.28598 | 153 ft | 111 kts | 94° |
| 2026-04-24 04:14 | 21.77421 | -72.27836 | 37 ft | 89 kts | 91° |
| 2026-04-24 04:14 | 21.77394 | -72.27252 | 33 ft | 68 kts | 92° |
| 2026-04-24 04:15 | 21.77371 | -72.26908 | 33 ft | 23 kts | 95° |
| 2026-04-24 04:15 | 21.77367 | -72.26828 | 32 ft | 5 kts | 13° |
| 2026-04-24 04:15 | 21.77376 | -72.26903 | 33 ft | 25 kts | 267° |
| 2026-04-24 04:15 | 21.77384 | -72.27098 | 32 ft | 13 kts | 273° |
| 2026-04-24 04:16 | 21.77330 | -72.27209 | 33 ft | 22 kts | 181° |
| 2026-04-24 04:16 | 21.77183 | -72.27221 | 37 ft | 15 kts | 204° |
| 2026-04-24 04:16 | 21.77124 | -72.27300 | 37 ft | 13 kts | 200° |
| 2026-04-24 04:16 | 21.77089 | -72.27274 | 37 ft | 0 kts | 93° |